createdAt,value
2023-04-25T00:04:03.828Z,67.58
2023-04-25T00:08:12.477Z,67.81
2023-04-25T00:12:20.160Z,67.57
2023-04-25T00:16:28.102Z,67.90
2023-04-25T00:20:36.691Z,67.40
2023-04-25T00:24:44.941Z,67.64
2023-04-25T00:28:53.859Z,67.84
2023-04-25T00:33:01.174Z,68.38
2023-04-25T00:37:08.825Z,68.61
2023-04-25T00:41:16.818Z,68.77
2023-04-25T00:45:24.802Z,68.98
2023-04-25T00:49:32.590Z,69.34
2023-04-25T00:53:41.212Z,69.00
2023-04-25T00:57:49.489Z,69.03
2023-04-25T01:01:57.419Z,69.04
2023-04-25T01:06:05.498Z,69.53
2023-04-25T01:10:13.758Z,69.52
2023-04-25T01:14:21.542Z,69.65
2023-04-25T01:18:29.640Z,69.70
2023-04-25T01:22:37.454Z,69.94
2023-04-25T01:26:50.638Z,69.79
2023-04-25T01:30:58.805Z,70.19
2023-04-25T01:35:10.417Z,70.15
2023-04-25T01:39:18.247Z,70.18
2023-04-25T01:43:27.623Z,70.30
2023-04-25T01:47:36.252Z,70.77
2023-04-25T01:51:45.215Z,71.01
2023-04-25T01:55:55.111Z,70.97
2023-04-25T02:00:04.805Z,71.26
2023-04-25T02:04:12.868Z,70.92
2023-04-25T02:08:22.386Z,71.38
2023-04-25T02:12:31.218Z,71.43
2023-04-25T02:16:40.150Z,71.47
2023-04-25T02:20:47.986Z,71.54
2023-04-25T02:24:57.416Z,71.87
2023-04-25T02:29:07.314Z,72.01
2023-04-25T02:33:14.832Z,71.86
2023-04-25T02:37:22.582Z,71.88
2023-04-25T02:41:30.117Z,71.42
2023-04-25T02:45:38.884Z,71.71
2023-04-25T02:49:47.064Z,71.60
2023-04-25T02:53:55.951Z,71.66
2023-04-25T02:58:03.715Z,71.31
2023-04-25T03:02:13.882Z,71.53
2023-04-25T03:06:21.695Z,71.32
2023-04-25T03:10:29.467Z,71.21
2023-04-25T03:14:37.631Z,71.32
2023-04-25T03:18:45.748Z,71.53
2023-04-25T03:22:53.112Z,71.44
2023-04-25T03:27:01.559Z,71.57
2023-04-25T03:31:11.721Z,71.12
2023-04-25T03:35:19.788Z,71.16
2023-04-25T03:39:27.630Z,70.96
2023-04-25T03:43:35.567Z,70.91
2023-04-25T03:47:43.928Z,71.01
2023-04-25T03:51:51.758Z,70.90
2023-04-25T03:56:04.692Z,70.96
2023-04-25T04:00:17.672Z,70.90
2023-04-25T04:04:25.821Z,70.66
2023-04-25T04:08:34.484Z,70.64
2023-04-25T04:12:42.756Z,70.68
2023-04-25T04:16:50.403Z,70.55
2023-04-25T04:20:59.368Z,70.42
2023-04-25T04:25:08.523Z,70.58
2023-04-25T04:29:22.226Z,70.60
2023-04-25T04:33:30.789Z,70.54
2023-04-25T04:37:39.128Z,70.53
2023-04-25T04:41:47.496Z,69.86
2023-04-25T04:45:57.421Z,69.97
2023-04-25T04:50:08.300Z,69.93
2023-04-25T04:54:17.784Z,69.89
2023-04-25T04:58:30.261Z,69.60
2023-04-25T05:02:38.259Z,69.40
2023-04-25T05:06:48.661Z,69.30
2023-04-25T05:10:58.234Z,69.51
2023-04-25T05:15:06.729Z,69.13
2023-04-25T05:19:15.477Z,68.47
2023-04-25T05:23:23.231Z,68.47
2023-04-25T05:27:31.046Z,68.39
2023-04-25T05:31:40.206Z,67.91
2023-04-25T05:35:49.415Z,67.80
2023-04-25T05:39:57.591Z,67.82
2023-04-25T05:44:06.058Z,67.64
2023-04-25T05:48:14.431Z,67.63
2023-04-25T05:52:23.832Z,67.66
2023-04-25T05:56:31.806Z,67.19
2023-04-25T06:00:39.900Z,66.82
2023-04-25T06:04:48.048Z,66.72
2023-04-25T06:08:57.153Z,66.24
2023-04-25T06:13:04.988Z,66.02
2023-04-25T06:17:13.104Z,65.83
2023-04-25T06:21:21.176Z,65.47
2023-04-25T06:25:30.285Z,65.27
2023-04-25T06:29:39.631Z,65.30
2023-04-25T06:33:49.777Z,64.65
2023-04-25T06:37:57.482Z,64.75
2023-04-25T06:42:05.104Z,64.57
2023-04-25T06:46:13.565Z,64.47
2023-04-25T06:50:21.276Z,64.34
2023-04-25T06:54:30.927Z,63.89
2023-04-25T06:58:38.487Z,64.15
2023-04-25T07:02:46.905Z,64.70
2023-04-25T07:06:56.104Z,64.19
2023-04-25T07:11:04.076Z,64.09
2023-04-25T07:15:13.264Z,63.49
2023-04-25T07:19:20.869Z,62.68
2023-04-25T07:23:28.737Z,61.00
2023-04-25T07:27:36.547Z,60.80
2023-04-25T07:31:44.680Z,60.67
2023-04-25T07:35:54.296Z,61.54
2023-04-25T07:40:02.003Z,61.51
2023-04-25T07:44:09.818Z,61.35
2023-04-25T07:48:21.166Z,61.60
2023-04-25T07:52:29.239Z,61.39
2023-04-25T07:56:48.995Z,61.25
2023-04-25T08:00:59.962Z,60.59
2023-04-25T08:05:13.241Z,60.53
2023-04-25T08:09:21.085Z,59.95
2023-04-25T08:13:30.597Z,60.01
2023-04-25T08:17:38.209Z,60.27
2023-04-25T08:21:46.762Z,58.77
2023-04-25T08:25:55.186Z,58.89
2023-04-25T08:30:04.162Z,58.24
2023-04-25T08:34:12.527Z,57.74
2023-04-25T08:38:22.365Z,57.64
2023-04-25T08:42:31.277Z,58.24
2023-04-25T08:46:40.204Z,57.78
2023-04-25T08:50:53.845Z,57.47
2023-04-25T08:55:02.490Z,57.54
2023-04-25T08:59:12.549Z,56.90
2023-04-25T09:03:20.461Z,56.32
2023-04-25T09:07:28.400Z,56.61
2023-04-25T09:11:38.262Z,57.28
2023-04-25T09:15:56.958Z,57.51
2023-04-25T09:20:16.469Z,57.92
2023-04-25T09:24:34.481Z,58.31
2023-04-25T09:28:44.253Z,58.58
2023-04-25T09:32:51.718Z,58.47
2023-04-25T09:37:00.124Z,58.75
2023-04-25T09:41:08.010Z,58.43
2023-04-25T09:45:17.134Z,59.07
2023-04-25T09:49:25.817Z,58.12
2023-04-25T09:53:34.514Z,57.05
2023-04-25T09:57:42.260Z,55.11
2023-04-25T10:01:51.402Z,53.27
2023-04-25T10:06:01.452Z,53.74
2023-04-25T10:10:11.312Z,55.25
2023-04-25T10:14:20.461Z,55.26
2023-04-25T10:18:29.513Z,53.32
2023-04-25T10:22:40.009Z,53.51
2023-04-25T10:26:48.352Z,53.42
2023-04-25T10:31:06.902Z,52.11
2023-04-25T10:35:19.527Z,50.16
2023-04-25T10:39:29.704Z,49.13
2023-04-25T10:43:42.513Z,48.86
2023-04-25T10:47:50.503Z,48.56
2023-04-25T10:52:16.162Z,48.45
2023-04-25T10:56:24.876Z,48.48
2023-04-25T11:00:42.869Z,49.37
2023-04-25T11:04:57.621Z,49.17
2023-04-25T11:09:06.224Z,48.81
2023-04-25T11:13:15.738Z,49.34
2023-04-25T11:17:23.565Z,48.93
2023-04-25T11:21:33.210Z,48.68
2023-04-25T11:25:45.220Z,47.73
2023-04-25T11:29:53.447Z,47.19
2023-04-25T11:34:02.738Z,47.05
2023-04-25T11:38:11.222Z,47.43
2023-04-25T11:42:18.840Z,47.88
2023-04-25T11:46:30.306Z,48.36
2023-04-25T11:50:38.143Z,47.65
2023-04-25T11:54:46.140Z,47.07
2023-04-25T11:59:03.855Z,47.57
2023-04-25T12:03:17.901Z,47.93
2023-04-25T12:07:33.074Z,47.69
2023-04-25T12:11:47.158Z,47.28
2023-04-25T12:15:56.455Z,46.61
2023-04-25T12:20:04.334Z,47.63
2023-04-25T12:24:20.176Z,47.95
2023-04-25T12:28:29.480Z,47.99
2023-04-25T12:32:37.888Z,47.62
2023-04-25T12:36:46.978Z,47.90
2023-04-25T12:40:55.593Z,47.75
2023-04-25T12:45:03.480Z,47.42
2023-04-25T12:53:26.419Z,49.20
2023-04-25T12:57:34.603Z,49.21
2023-04-25T13:01:42.370Z,48.71
2023-04-25T13:05:51.622Z,48.11
2023-04-25T13:10:00.472Z,48.93
2023-04-25T13:14:10.597Z,47.85
2023-04-25T13:18:19.465Z,48.14
2023-04-25T13:22:28.819Z,48.77
2023-04-25T13:26:38.383Z,48.49
2023-04-25T13:30:48.245Z,48.68
2023-04-25T13:34:57.157Z,48.27
2023-04-25T13:39:06.317Z,46.40
2023-04-25T13:43:14.084Z,44.49
2023-04-25T13:47:25.577Z,44.60
2023-04-25T13:51:33.303Z,45.79
2023-04-25T13:55:41.626Z,47.37
2023-04-25T13:59:49.466Z,46.81
2023-04-25T14:03:56.993Z,46.98
2023-04-25T14:08:06.706Z,46.62
2023-04-25T14:12:14.537Z,46.60
2023-04-25T14:16:23.883Z,46.44
2023-04-25T14:20:32.368Z,46.38
2023-04-25T14:24:41.182Z,46.26
2023-04-25T14:28:48.914Z,47.36
2023-04-25T14:32:56.848Z,48.13
2023-04-25T14:37:04.446Z,48.99
2023-04-25T14:41:12.131Z,50.35
2023-04-25T14:45:21.540Z,51.87
2023-04-25T14:49:30.310Z,52.92
2023-04-25T14:53:38.324Z,53.34
2023-04-25T14:57:47.123Z,53.29
2023-04-25T15:01:59.784Z,52.84
2023-04-25T15:06:08.678Z,53.24
2023-04-25T15:10:17.702Z,53.88
2023-04-25T15:14:25.297Z,54.42
2023-04-25T15:18:33.224Z,54.63
2023-04-25T15:22:42.409Z,54.24
2023-04-25T15:26:50.701Z,53.90
2023-04-25T15:30:58.591Z,53.69
2023-04-25T15:35:09.520Z,53.66
2023-04-25T15:39:18.262Z,54.01
2023-04-25T15:43:26.426Z,54.59
2023-04-25T15:47:34.285Z,54.86
2023-04-25T15:51:42.543Z,55.64
2023-04-25T15:55:50.464Z,56.18
2023-04-25T15:59:58.193Z,56.78
2023-04-25T16:04:07.072Z,57.52
2023-04-25T16:08:15.046Z,57.00
2023-04-25T16:12:22.942Z,57.48
2023-04-25T16:16:30.990Z,58.97
2023-04-25T16:20:38.817Z,59.94
2023-04-25T16:24:46.826Z,60.74
2023-04-25T16:28:54.530Z,61.09
2023-04-25T16:33:02.604Z,61.86
2023-04-25T16:37:10.716Z,61.68
2023-04-25T16:41:18.789Z,62.23
2023-04-25T16:45:27.056Z,62.75
2023-04-25T16:49:34.809Z,63.27
2023-04-25T16:53:42.712Z,64.06
2023-04-25T16:57:50.157Z,64.27
2023-04-25T17:01:58.584Z,63.55
2023-04-25T17:06:07.996Z,63.39
2023-04-25T17:10:15.344Z,63.58
2023-04-25T17:14:23.584Z,63.33
2023-04-25T17:18:33.556Z,62.19
2023-04-25T17:22:41.290Z,62.42
2023-04-25T17:26:49.192Z,62.68
2023-04-25T17:30:57.778Z,63.08
2023-04-25T17:35:05.693Z,63.95
2023-04-25T17:39:17.761Z,64.20
2023-04-25T17:43:28.106Z,64.31
2023-04-25T17:47:35.718Z,64.20
2023-04-25T17:51:43.991Z,64.12
2023-04-25T17:55:52.237Z,64.02
2023-04-25T18:00:02.914Z,64.16
2023-04-25T18:04:14.408Z,64.54
2023-04-25T18:08:23.212Z,64.56
2023-04-25T18:12:30.652Z,64.43
2023-04-25T18:16:38.665Z,64.98
2023-04-25T18:20:47.032Z,65.40
2023-04-25T18:24:55.601Z,65.54
2023-04-25T18:29:03.828Z,65.53
2023-04-25T18:33:11.647Z,65.81
2023-04-25T18:37:20.204Z,66.06
2023-04-25T18:41:51.868Z,66.57
2023-04-25T18:45:56.560Z,66.64
2023-04-25T18:50:06.909Z,66.95
2023-04-25T18:54:15.049Z,66.64
2023-04-25T18:58:23.683Z,67.16
2023-04-25T19:02:31.573Z,67.84
2023-04-25T19:06:42.086Z,67.79
2023-04-25T19:10:50.783Z,68.04
2023-04-25T19:14:59.342Z,67.91
2023-04-25T19:19:09.001Z,68.03
2023-04-25T19:23:16.764Z,68.09
2023-04-25T19:27:24.587Z,68.46
2023-04-25T19:31:32.044Z,68.60
2023-04-25T19:35:39.769Z,68.75
2023-04-25T19:39:48.142Z,69.18
2023-04-25T19:44:00.195Z,69.24
2023-04-25T19:48:10.390Z,69.30
2023-04-25T19:52:18.482Z,69.14
2023-04-25T19:56:27.305Z,69.05
2023-04-25T20:00:35.527Z,69.11
2023-04-25T20:04:43.783Z,69.16
2023-04-25T20:08:54.405Z,69.34
2023-04-25T20:13:03.141Z,69.64
2023-04-25T20:17:12.646Z,69.63
2023-04-25T20:21:21.885Z,69.61
2023-04-25T20:25:30.334Z,69.63
2023-04-25T20:29:38.462Z,69.15
2023-04-25T20:33:45.865Z,69.14
2023-04-25T20:37:53.873Z,69.00
2023-04-25T20:42:01.836Z,68.86
2023-04-25T20:46:10.657Z,68.60
2023-04-25T20:50:19.403Z,68.02
2023-04-25T20:54:27.363Z,67.71
2023-04-25T20:58:35.978Z,67.68
2023-04-25T21:02:44.264Z,67.42
2023-04-25T21:06:51.804Z,67.25
2023-04-25T21:10:59.666Z,67.48
2023-04-25T21:15:08.888Z,67.30
2023-04-25T21:19:17.815Z,66.84
2023-04-25T21:23:30.047Z,66.80
2023-04-25T21:27:38.385Z,66.45
2023-04-25T21:31:48.261Z,66.17
2023-04-25T21:35:57.255Z,65.97
2023-04-25T21:40:06.157Z,66.26
2023-04-25T21:44:14.632Z,66.70
2023-04-25T21:48:25.587Z,66.46
2023-04-25T21:52:33.718Z,66.57
2023-04-25T21:56:43.417Z,66.88
2023-04-25T22:00:52.108Z,67.64
2023-04-25T22:05:00.421Z,67.26
2023-04-25T22:09:12.420Z,67.43
2023-04-25T22:13:23.108Z,67.51
2023-04-25T22:17:31.634Z,67.54
2023-04-25T22:21:39.807Z,67.88
2023-04-25T22:25:47.732Z,67.47
2023-04-25T22:29:55.632Z,67.76
2023-04-25T22:34:04.511Z,67.89
2023-04-25T22:38:13.349Z,67.80
2023-04-25T22:42:20.671Z,68.02
2023-04-25T22:46:28.897Z,67.89
2023-04-25T22:50:39.753Z,68.18
2023-04-25T22:54:47.620Z,67.84
2023-04-25T22:58:55.605Z,68.39
2023-04-25T23:13:04.721Z,68.27
2023-04-25T23:17:12.791Z,67.74
2023-04-25T23:21:23.363Z,68.06
2023-04-25T23:25:32.597Z,68.19
2023-04-25T23:29:41.292Z,68.25
2023-04-25T23:33:49.214Z,67.88
2023-04-25T23:37:57.600Z,68.13
2023-04-25T23:42:05.126Z,67.96
2023-04-25T23:46:14.124Z,67.94
2023-04-25T23:50:22.280Z,68.14
2023-04-25T23:54:30.765Z,68.45
2023-04-25T23:58:39.685Z,68.66
